Cape May Whale Watcher — WDE7979 — position and weather

sailwx.info

Track history (hours):
 
Tides and Currents Weather Stations Pressure Air Temp Water Temp Dewpoint Dewpoint Depression Visibility Wind Speed Wind Dir Waves Ship Positions

Cape May Whale Watcher

Owner: Spirit of Cape May, LLC, North Cape May, NJ. More information available from US FCC via Universal Licensing System and Coast Guard Vessel Documentation Center.

Last reported at 2017-Sep-21 15:04 UTC. Time now 2017-Sep-21 15:47 UTC.
Position N 38°57' W 074°58'.

; draft 2.4 m.

Type: Passenger vessel. MMSI: 367400050.

Date/timePositionNaut miles runAvg speedWind from/ knotsBaromVisibWave heightAir tempDewpointWater temp
2017-Sep-21 15:04N 38°57' W 074°58'0 1.8
2017-Sep-21 14:59N 38°57' W 074°58'  
2017-Sep-18 16:17N 38°57' W 074°55'4 2.4
2017-Sep-18 14:47N 38°59' W 074°58'2 5.9
2017-Sep-18 14:30N 38°58' W 074°57'2 0.1
2017-Sep-16 23:33N 38°57' W 074°55'0 2.6
2017-Sep-16 23:30N 38°57' W 074°55'3 6.1
2017-Sep-16 23:01N 38°56' W 074°58'4 7.0
2017-Sep-16 22:30N 38°56' W 074°54'2 3.1
2017-Sep-16 22:00N 38°56' W 074°52'2 2.5
2017-Sep-16 21:02N 38°57' W 074°55'0 8.1
2017-Sep-16 21:00N 38°57' W 074°55'6 2.6
2017-Sep-16 18:42N 38°51' W 074°53'211.8
2017-Sep-16 18:29N 38°54' W 074°52'2 5.0
2017-Sep-16 18:00N 38°56' W 074°54'2 5.0
2017-Sep-16 17:30N 38°56' W 074°51'3 2.7
2017-Sep-16 16:31N 38°57' W 074°55'0 4.5
2017-Sep-16 16:30N 38°57' W 074°55'610.6
2017-Sep-16 15:55N 38°54' W 074°48'511.0
2017-Sep-16 15:29N 38°51' W 074°53'612.6
2017-Sep-16 15:00N 38°56' W 074°58'1 3.0
2017-Sep-16 14:30N 38°58' W 074°58'3 0.2
2017-Sep-15 23:27N 38°57' W 074°55'3 3.9
2017-Sep-15 22:47N 38°56' W 074°57'312.0
2017-Sep-15 22:30N 38°56' W 074°53'2 3.0
2017-Sep-15 21:57N 38°57' W 074°51'5 1.6
2017-Sep-15 18:45N 38°52' W 074°52'1 2.2
2017-Sep-15 18:29N 38°52' W 074°52'7 0.2
2017-Sep-14 14:44N 38°56' W 074°58'1 5.7
2017-Sep-14 14:30N 38°57' W 074°58'8 0.4
2017-Sep-13 18:21N 38°51' W 075°04'1 3.4
2017-Sep-13 18:00N 38°52' W 075°03'612.3
2017-Sep-13 17:30N 38°57' W 074°59'4 2.4
2017-Sep-13 15:59N 38°57' W 074°55'3 6.0
2017-Sep-13 15:30N 38°57' W 074°58'1 1.2
2017-Sep-13 14:59N 38°57' W 074°58'2 5.0
2017-Sep-13 14:31N 38°59' W 074°58'3 0.2
2017-Sep-12 23:26N 38°57' W 074°55'3 6.7
2017-Sep-12 23:00N 38°58' W 074°58'2 4.8
2017-Sep-12 22:30N 38°56' W 074°56'5 9.1
2017-Sep-12 22:00N 38°56' W 074°51'3 6.5
2017-Sep-12 21:30N 38°57' W 074°55'0 0.0
2017-Sep-12 20:58N 38°57' W 074°55'512.1
2017-Sep-12 20:30N 38°55' W 075°01'2 4.3
2017-Sep-12 20:00N 38°53' W 075°03'0 0.5
2017-Sep-12 19:30N 38°53' W 075°03'4 7.9
2017-Sep-12 19:00N 38°50' W 075°01'612.4
2017-Sep-12 18:30N 38°48' W 074°54'3 7.0
2017-Sep-12 18:00N 38°51' W 074°51'7 7.8
2017-Sep-12 17:06N 38°57' W 074°55'0 0.1
2017-Sep-12 16:00N 38°57' W 074°55'3 6.3
2017-Sep-12 15:30N 38°55' W 074°51'6 8.4
2017-Sep-12 14:47N 38°56' W 074°59'2 8.0
2017-Sep-12 14:30N 38°59' W 074°58'3 0.2
2017-Sep-11 23:28N 38°57' W 074°55'  
Track history (hours):
 
Tides and Currents Weather Stations Pressure Air Temp Water Temp Dewpoint Dewpoint Depression Visibility Wind Speed Wind Dir Waves Ship Positions

Cape May Whale Watcher

Owner: Spirit of Cape May, LLC, North Cape May, NJ. More information available from US FCC via Universal Licensing System and Coast Guard Vessel Documentation Center.

Last reported at 2017-Sep-21 15:04 UTC. Time now 2017-Sep-21 15:47 UTC.
Position N 38°57' W 074°58'.

; draft 2.4 m.

Type: Passenger vessel. MMSI: 367400050.

Date/timePositionNaut miles runAvg speedWind from/ knotsBaromVisibWave heightAir tempDewpointWater temp
2017-Sep-21 15:04N 38°57' W 074°58'0 1.8
2017-Sep-21 14:59N 38°57' W 074°58'  
2017-Sep-18 16:17N 38°57' W 074°55'4 2.4
2017-Sep-18 14:47N 38°59' W 074°58'2 5.9
2017-Sep-18 14:30N 38°58' W 074°57'2 0.1
2017-Sep-16 23:33N 38°57' W 074°55'0 2.6
2017-Sep-16 23:30N 38°57' W 074°55'3 6.1
2017-Sep-16 23:01N 38°56' W 074°58'4 7.0
2017-Sep-16 22:30N 38°56' W 074°54'2 3.1
2017-Sep-16 22:00N 38°56' W 074°52'2 2.5
2017-Sep-16 21:02N 38°57' W 074°55'0 8.1
2017-Sep-16 21:00N 38°57' W 074°55'6 2.6
2017-Sep-16 18:42N 38°51' W 074°53'211.8
2017-Sep-16 18:29N 38°54' W 074°52'2 5.0
2017-Sep-16 18:00N 38°56' W 074°54'2 5.0
2017-Sep-16 17:30N 38°56' W 074°51'3 2.7
2017-Sep-16 16:31N 38°57' W 074°55'0 4.5
2017-Sep-16 16:30N 38°57' W 074°55'610.6
2017-Sep-16 15:55N 38°54' W 074°48'511.0
2017-Sep-16 15:29N 38°51' W 074°53'612.6
2017-Sep-16 15:00N 38°56' W 074°58'1 3.0
2017-Sep-16 14:30N 38°58' W 074°58'3 0.2
2017-Sep-15 23:27N 38°57' W 074°55'3 3.9
2017-Sep-15 22:47N 38°56' W 074°57'312.0
2017-Sep-15 22:30N 38°56' W 074°53'2 3.0
2017-Sep-15 21:57N 38°57' W 074°51'5 1.6
2017-Sep-15 18:45N 38°52' W 074°52'1 2.2
2017-Sep-15 18:29N 38°52' W 074°52'7 0.2
2017-Sep-14 14:44N 38°56' W 074°58'1 5.7
2017-Sep-14 14:30N 38°57' W 074°58'8 0.4
2017-Sep-13 18:21N 38°51' W 075°04'1 3.4
2017-Sep-13 18:00N 38°52' W 075°03'612.3
2017-Sep-13 17:30N 38°57' W 074°59'4 2.4
2017-Sep-13 15:59N 38°57' W 074°55'3 6.0
2017-Sep-13 15:30N 38°57' W 074°58'1 1.2
2017-Sep-13 14:59N 38°57' W 074°58'2 5.0
2017-Sep-13 14:31N 38°59' W 074°58'3 0.2
2017-Sep-12 23:26N 38°57' W 074°55'3 6.7
2017-Sep-12 23:00N 38°58' W 074°58'2 4.8
2017-Sep-12 22:30N 38°56' W 074°56'5 9.1
2017-Sep-12 22:00N 38°56' W 074°51'3 6.5
2017-Sep-12 21:30N 38°57' W 074°55'0 0.0
2017-Sep-12 20:58N 38°57' W 074°55'512.1
2017-Sep-12 20:30N 38°55' W 075°01'2 4.3
2017-Sep-12 20:00N 38°53' W 075°03'0 0.5
2017-Sep-12 19:30N 38°53' W 075°03'4 7.9
2017-Sep-12 19:00N 38°50' W 075°01'612.4
2017-Sep-12 18:30N 38°48' W 074°54'3 7.0
2017-Sep-12 18:00N 38°51' W 074°51'7 7.8
2017-Sep-12 17:06N 38°57' W 074°55'0 0.1
2017-Sep-12 16:00N 38°57' W 074°55'3 6.3
2017-Sep-12 15:30N 38°55' W 074°51'6 8.4
2017-Sep-12 14:47N 38°56' W 074°59'2 8.0
2017-Sep-12 14:30N 38°59' W 074°58'3 0.2
2017-Sep-11 23:28N 38°57' W 074°55'  

Dump ship's entire track history